createdAt,value
2022-08-01T00:01:33.222Z,1.50
2022-08-01T00:04:01.395Z,1.17
2022-08-01T00:06:30.805Z,0.97
2022-08-01T00:08:59.078Z,1.00
2022-08-01T00:11:27.763Z,1.13
2022-08-01T00:13:57.425Z,1.13
2022-08-01T00:16:25.652Z,1.43
2022-08-01T00:18:56.439Z,1.07
2022-08-01T00:21:24.558Z,1.20
2022-08-01T00:23:52.621Z,1.10
2022-08-01T00:26:20.727Z,1.20
2022-08-01T00:28:48.831Z,1.30
2022-08-01T00:31:17.389Z,1.00
2022-08-01T00:33:45.656Z,1.60
2022-08-01T00:36:15.143Z,1.23
2022-08-01T00:38:46.035Z,1.33
2022-08-01T00:41:14.075Z,1.00
2022-08-01T00:43:42.180Z,1.40
2022-08-01T00:46:10.174Z,1.33
2022-08-01T00:48:38.180Z,1.20
2022-08-01T00:51:07.545Z,1.20
2022-08-01T00:53:51.380Z,1.17
2022-08-01T00:56:22.478Z,1.10
2022-08-01T00:58:50.680Z,1.20
2022-08-01T01:01:19.175Z,1.00
2022-08-01T01:04:02.790Z,1.20
2022-08-01T01:06:44.515Z,1.37
2022-08-01T01:09:26.043Z,1.37
2022-08-01T01:12:04.280Z,1.20
2022-08-01T01:14:39.055Z,1.20
2022-08-01T01:17:10.044Z,1.27
2022-08-01T01:19:44.554Z,1.20
2022-08-01T01:22:37.912Z,1.30
2022-08-01T01:25:33.226Z,1.20
2022-08-01T01:28:14.608Z,1.20
2022-08-01T01:30:50.376Z,1.37
2022-08-01T01:33:21.250Z,1.13
2022-08-01T01:35:54.139Z,1.40
2022-08-01T01:38:25.844Z,1.07
2022-08-01T01:40:57.399Z,1.57
2022-08-01T01:43:28.858Z,1.30
2022-08-01T01:46:05.170Z,1.40
2022-08-01T01:48:34.878Z,1.27
2022-08-01T01:51:05.532Z,1.20
2022-08-01T01:53:47.209Z,1.50
2022-08-01T01:56:18.619Z,1.20
2022-08-01T01:58:48.727Z,1.27
2022-08-01T02:02:05.464Z,0.90
2022-08-01T02:04:08.567Z,1.10
2022-08-01T02:06:37.123Z,1.40
2022-08-01T02:09:06.201Z,1.40
2022-08-01T02:11:36.388Z,1.53
2022-08-01T02:14:25.603Z,1.30
2022-08-01T02:17:04.851Z,1.20
2022-08-01T02:19:34.625Z,1.43
2022-08-01T02:22:12.090Z,1.47
2022-08-01T02:24:47.081Z,1.60
2022-08-01T02:27:19.802Z,1.40
2022-08-01T02:29:55.494Z,1.40
2022-08-01T02:32:31.142Z,1.33
2022-08-01T02:34:59.894Z,1.43
2022-08-01T02:37:31.248Z,1.27
2022-08-01T02:40:00.382Z,1.30
2022-08-01T02:42:31.049Z,1.27
2022-08-01T02:44:59.652Z,1.30
2022-08-01T02:47:41.046Z,1.43
2022-08-01T02:50:13.167Z,1.40
2022-08-01T02:52:43.649Z,1.60
2022-08-01T02:55:13.251Z,1.37
2022-08-01T02:57:51.636Z,1.47
2022-08-01T03:00:24.604Z,1.47
2022-08-01T03:02:57.107Z,1.60
2022-08-01T03:05:28.026Z,1.50
2022-08-01T03:08:02.758Z,1.47
2022-08-01T03:10:33.962Z,1.50
2022-08-01T03:13:05.772Z,1.40
2022-08-01T03:15:36.118Z,1.40
2022-08-01T03:18:08.827Z,1.37
2022-08-01T03:20:38.894Z,1.63
2022-08-01T03:23:09.726Z,1.40
2022-08-01T03:25:43.715Z,1.33
2022-08-01T03:28:18.209Z,1.17
2022-08-01T03:30:47.714Z,1.50
2022-08-01T03:33:17.160Z,1.00
2022-08-01T03:35:50.295Z,1.50
2022-08-01T03:38:24.160Z,1.70
2022-08-01T03:40:55.711Z,1.33
2022-08-01T03:43:48.167Z,1.63
2022-08-01T03:46:22.092Z,1.20
2022-08-01T03:48:57.780Z,1.10
2022-08-01T03:51:27.277Z,1.37
2022-08-01T03:53:57.461Z,1.57
2022-08-01T03:56:26.353Z,1.60
2022-08-01T03:58:54.967Z,1.77
2022-08-01T04:01:23.606Z,1.40
2022-08-01T04:03:51.775Z,1.93
2022-08-01T04:06:22.332Z,1.40
2022-08-01T04:08:57.577Z,1.47
2022-08-01T04:11:29.290Z,1.53
2022-08-01T04:13:58.591Z,1.37
2022-08-01T04:16:27.145Z,1.20
2022-08-01T04:18:55.370Z,1.30
2022-08-01T04:21:28.862Z,1.27
2022-08-01T04:24:00.390Z,1.30
2022-08-01T04:26:29.954Z,1.33
2022-08-01T04:28:58.586Z,1.20
2022-08-01T04:31:28.291Z,1.40
2022-08-01T04:33:58.558Z,1.40
2022-08-01T04:36:32.074Z,1.23
2022-08-01T04:39:04.412Z,1.20
2022-08-01T04:41:34.243Z,1.33
2022-08-01T04:44:05.753Z,1.30
2022-08-01T04:46:35.889Z,1.70
2022-08-01T04:49:04.685Z,1.50
2022-08-01T04:51:34.117Z,1.37
2022-08-01T04:54:02.270Z,1.20
2022-08-01T04:56:30.287Z,1.43
2022-08-01T04:59:17.626Z,1.13
2022-08-01T05:01:51.839Z,1.30
2022-08-01T05:04:19.921Z,1.27
2022-08-01T05:06:49.546Z,1.40
2022-08-01T05:09:18.237Z,1.20
2022-08-01T05:11:46.567Z,1.20
2022-08-01T05:14:16.674Z,1.20
2022-08-01T05:16:44.804Z,2.00
2022-08-01T05:19:12.873Z,1.50
2022-08-01T05:21:40.831Z,1.50
2022-08-01T05:24:10.358Z,1.20
2022-08-01T05:26:39.278Z,1.50
2022-08-01T05:29:07.404Z,1.10
2022-08-01T05:31:41.797Z,1.50
2022-08-01T05:34:14.973Z,1.10
2022-08-01T05:36:43.474Z,1.33
2022-08-01T05:39:13.668Z,1.20
2022-08-01T05:41:42.664Z,1.40
2022-08-01T05:44:11.609Z,1.20
2022-08-01T05:46:40.211Z,1.53
2022-08-01T05:49:08.696Z,1.30
2022-08-01T05:51:36.859Z,1.20
2022-08-01T05:54:05.082Z,1.00
2022-08-01T05:56:34.586Z,1.10
2022-08-01T05:59:03.486Z,1.40
2022-08-01T06:01:32.217Z,1.30
2022-08-01T06:04:00.797Z,1.33
2022-08-01T06:06:28.932Z,1.40
2022-08-01T06:08:56.846Z,1.30
2022-08-01T06:11:25.129Z,1.27
2022-08-01T06:13:56.036Z,1.40
2022-08-01T06:16:24.098Z,1.13
2022-08-01T06:18:56.532Z,1.30
2022-08-01T06:21:25.296Z,1.30
2022-08-01T06:23:53.727Z,1.10
2022-08-01T06:26:21.971Z,1.37
2022-08-01T06:28:50.127Z,1.40
2022-08-01T06:31:19.587Z,1.53
2022-08-01T06:33:47.556Z,1.40
2022-08-01T06:36:15.521Z,1.40
2022-08-01T06:38:43.444Z,1.43
2022-08-01T06:41:11.644Z,1.40
2022-08-01T06:43:39.952Z,1.20
2022-08-01T06:46:08.018Z,1.10
2022-08-01T06:48:49.688Z,1.60
2022-08-01T06:51:20.871Z,1.10
2022-08-01T06:53:49.695Z,1.50
2022-08-01T06:56:17.769Z,1.20
2022-08-01T06:58:45.939Z,1.30
2022-08-01T07:01:14.007Z,1.40
2022-08-01T07:03:54.586Z,1.37
2022-08-01T07:06:26.746Z,1.07
2022-08-01T07:08:55.287Z,1.20
2022-08-01T07:11:24.301Z,1.30
2022-08-01T07:13:52.655Z,1.10
2022-08-01T07:16:20.880Z,1.20
2022-08-01T07:18:48.864Z,1.40
2022-08-01T07:21:40.419Z,1.47
2022-08-01T07:24:13.281Z,1.20
2022-08-01T07:26:52.150Z,1.50
2022-08-01T07:29:21.110Z,1.10
2022-08-01T07:31:49.072Z,1.20
2022-08-01T07:34:17.183Z,1.10
2022-08-01T07:36:45.519Z,1.30
2022-08-01T07:39:14.894Z,1.30
2022-08-01T07:41:53.396Z,1.30
2022-08-01T07:44:31.423Z,1.93
2022-08-01T07:47:02.369Z,1.33
2022-08-01T07:49:47.998Z,1.40
2022-08-01T07:52:16.462Z,1.30
2022-08-01T07:54:51.805Z,1.63
2022-08-01T07:57:20.354Z,1.10
2022-08-01T07:59:48.348Z,1.50
2022-08-01T08:02:16.720Z,1.30
2022-08-01T08:04:48.865Z,1.20
2022-08-01T08:07:17.758Z,1.33
2022-08-01T08:09:51.227Z,1.30
2022-08-01T08:12:28.717Z,1.10
2022-08-01T08:14:59.505Z,1.40
2022-08-01T08:17:27.999Z,1.10
2022-08-01T08:19:56.387Z,1.20
2022-08-01T08:22:24.490Z,1.10
2022-08-01T08:24:53.892Z,1.07
2022-08-01T08:27:29.155Z,1.20
2022-08-01T08:29:57.084Z,1.00
2022-08-01T08:32:25.327Z,1.27
2022-08-01T08:34:53.464Z,1.10
2022-08-01T08:37:22.060Z,1.40
2022-08-01T08:39:50.062Z,1.10
2022-08-01T08:42:21.310Z,1.37
2022-08-01T08:44:50.351Z,1.50
2022-08-01T08:47:20.784Z,1.20
2022-08-01T08:49:50.648Z,1.30
2022-08-01T08:52:21.004Z,1.10
2022-08-01T08:54:50.741Z,1.40
2022-08-01T08:57:22.222Z,1.10
2022-08-01T08:59:53.078Z,1.07
2022-08-01T09:02:21.151Z,1.30
2022-08-01T09:04:51.381Z,1.10
2022-08-01T09:10:01.087Z,1.17
2022-08-01T09:12:32.184Z,1.27
2022-08-01T09:15:00.215Z,1.37
2022-08-01T09:17:28.232Z,1.00
2022-08-01T09:19:58.999Z,1.30
2022-08-01T09:22:27.498Z,1.30
2022-08-01T09:25:05.087Z,1.37
2022-08-01T09:27:35.581Z,1.27
2022-08-01T09:30:11.958Z,1.10
2022-08-01T09:32:55.517Z,1.23
2022-08-01T09:35:30.457Z,1.00
2022-08-01T09:38:17.838Z,1.30
2022-08-01T09:40:50.627Z,1.20
2022-08-01T09:43:20.679Z,1.40
2022-08-01T09:45:50.782Z,1.47
2022-08-01T09:48:28.393Z,1.30
2022-08-01T09:51:04.150Z,1.40
2022-08-01T09:53:51.899Z,1.30
2022-08-01T09:56:23.162Z,1.30
2022-08-01T09:59:00.545Z,1.10
2022-08-01T10:01:36.781Z,1.03
2022-08-01T10:04:09.585Z,1.77
2022-08-01T10:06:44.022Z,1.40
2022-08-01T10:09:13.931Z,1.50
2022-08-01T10:11:45.247Z,1.83
2022-08-01T10:14:17.836Z,1.70
2022-08-01T10:16:52.840Z,1.90
2022-08-01T10:19:24.479Z,1.53
2022-08-01T10:21:58.948Z,1.20
2022-08-01T10:24:29.739Z,1.10
2022-08-01T10:27:05.882Z,1.53
2022-08-01T10:29:59.195Z,1.30
2022-08-01T10:32:31.955Z,1.43
2022-08-01T10:35:06.775Z,1.30
2022-08-01T10:37:51.874Z,1.20
2022-08-01T10:40:37.147Z,1.23
2022-08-01T10:43:05.447Z,1.20
2022-08-01T10:45:35.952Z,1.30
2022-08-01T10:48:11.436Z,1.30
2022-08-01T10:50:44.203Z,1.50
2022-08-01T10:53:23.269Z,1.63
2022-08-01T10:56:01.376Z,1.33
2022-08-01T10:58:46.521Z,1.70
2022-08-01T11:01:29.825Z,1.50
2022-08-01T11:04:16.076Z,1.40
2022-08-01T11:07:07.208Z,1.93
2022-08-01T11:09:47.094Z,1.47
2022-08-01T11:12:24.644Z,1.50
2022-08-01T11:15:32.241Z,1.63
2022-08-01T11:18:31.111Z,1.67
2022-08-01T11:21:57.997Z,1.70
2022-08-01T11:23:53.183Z,2.47
2022-08-01T11:26:29.519Z,2.23
2022-08-01T11:32:26.918Z,2.30
2022-08-01T11:34:56.165Z,2.60
2022-08-01T11:37:44.679Z,2.43
2022-08-01T11:40:22.976Z,2.60
2022-08-01T11:43:19.849Z,2.60
2022-08-01T11:45:52.547Z,3.43
2022-08-01T11:48:27.601Z,2.83
2022-08-01T11:50:57.725Z,3.10
2022-08-01T11:53:28.826Z,3.27
2022-08-01T11:55:58.503Z,3.50
2022-08-01T11:58:30.735Z,3.50
2022-08-01T12:01:00.915Z,3.40
2022-08-01T12:03:33.571Z,3.70
2022-08-01T12:06:02.518Z,4.00
2022-08-01T12:08:35.884Z,3.97
2022-08-01T12:11:06.864Z,3.37
2022-08-01T12:13:47.681Z,4.20
2022-08-01T12:16:16.343Z,3.90
2022-08-01T12:18:45.396Z,3.70
2022-08-01T12:21:13.450Z,3.23
2022-08-01T12:23:42.952Z,3.40
2022-08-01T12:26:25.872Z,3.60
2022-08-01T12:28:59.391Z,3.37
2022-08-01T12:31:33.978Z,3.80
2022-08-01T12:34:27.735Z,3.63
2022-08-01T12:36:57.653Z,3.10
2022-08-01T12:39:34.624Z,3.30
2022-08-01T12:42:07.392Z,2.93
2022-08-01T12:44:36.751Z,3.20
2022-08-01T12:47:07.976Z,2.80
2022-08-01T12:49:38.705Z,3.30
2022-08-01T12:52:12.865Z,3.10
2022-08-01T12:55:06.443Z,3.53
2022-08-01T12:57:41.472Z,3.37
2022-08-01T13:00:19.298Z,2.90
2022-08-01T13:02:49.347Z,3.23
2022-08-01T13:05:18.825Z,3.20
2022-08-01T13:07:49.784Z,3.37
2022-08-01T13:10:29.718Z,3.37
2022-08-01T13:12:59.634Z,3.03
2022-08-01T13:15:33.192Z,3.03
2022-08-01T13:18:03.032Z,3.10
2022-08-01T13:20:34.041Z,3.03
2022-08-01T13:23:18.086Z,2.70
2022-08-01T13:26:05.956Z,3.10
2022-08-01T13:28:36.091Z,2.90
2022-08-01T13:31:06.436Z,2.70
2022-08-01T13:33:43.816Z,2.67
2022-08-01T13:36:12.374Z,3.03
2022-08-01T13:39:00.260Z,3.20
2022-08-01T13:41:29.900Z,3.20
2022-08-01T13:43:59.522Z,2.73
2022-08-01T13:46:29.702Z,2.57
2022-08-01T13:48:57.775Z,2.57
2022-08-01T13:51:33.603Z,2.70
2022-08-01T13:54:01.734Z,2.87
2022-08-01T13:56:37.884Z,3.00
2022-08-01T13:59:05.879Z,3.20
2022-08-01T14:01:34.636Z,2.90
2022-08-01T14:04:03.666Z,2.83
2022-08-01T14:06:31.921Z,2.67
2022-08-01T14:09:01.278Z,3.50
2022-08-01T14:11:30.677Z,2.63
2022-08-01T14:14:08.277Z,3.13
2022-08-01T14:16:38.666Z,2.30
2022-08-01T14:19:06.619Z,2.50
2022-08-01T14:21:34.590Z,2.30
2022-08-01T14:24:02.644Z,2.97
2022-08-01T14:26:30.735Z,2.57
2022-08-01T14:28:58.835Z,2.53
2022-08-01T14:31:32.246Z,2.60
2022-08-01T14:34:02.538Z,2.70
2022-08-01T14:36:32.512Z,2.97
2022-08-01T14:39:06.760Z,2.93
2022-08-01T14:41:34.891Z,2.77
2022-08-01T14:44:05.143Z,3.20
2022-08-01T14:46:34.752Z,2.40
2022-08-01T14:49:06.352Z,2.93
2022-08-01T14:51:35.585Z,2.50
2022-08-01T14:54:03.970Z,2.33
2022-08-01T14:56:32.405Z,2.47
2022-08-01T14:59:01.393Z,2.57
2022-08-01T15:01:29.458Z,2.60
2022-08-01T15:03:59.317Z,3.23
2022-08-01T15:06:27.426Z,3.00
2022-08-01T15:08:59.968Z,2.33
2022-08-01T15:11:34.313Z,2.57
2022-08-01T15:14:22.445Z,2.53
2022-08-01T15:16:52.609Z,2.33
2022-08-01T15:19:22.051Z,2.90
2022-08-01T15:22:10.041Z,2.70
2022-08-01T15:24:38.580Z,3.20
2022-08-01T15:27:07.096Z,2.83
2022-08-01T15:29:35.679Z,2.73
2022-08-01T15:32:05.556Z,2.43
2022-08-01T15:34:35.939Z,2.50
2022-08-01T15:37:05.836Z,2.37
2022-08-01T15:39:35.010Z,2.17
2022-08-01T15:42:06.841Z,2.50
2022-08-01T15:44:35.416Z,2.13
2022-08-01T15:47:04.856Z,2.37
2022-08-01T15:49:37.641Z,2.40
2022-08-01T15:52:07.024Z,2.03
2022-08-01T15:54:50.327Z,1.80
2022-08-01T15:57:19.913Z,2.15
2022-08-01T15:59:47.896Z,2.17
2022-08-01T16:02:19.427Z,1.90
2022-08-01T16:04:48.824Z,1.70
2022-08-01T16:07:16.991Z,1.60
2022-08-01T16:10:09.081Z,1.88
2022-08-01T16:12:39.088Z,1.30
2022-08-01T16:15:08.145Z,1.70
2022-08-01T16:17:39.374Z,1.30
2022-08-01T16:20:14.159Z,1.70
2022-08-01T16:22:42.176Z,1.40
2022-08-01T16:25:11.533Z,1.80
2022-08-01T16:27:39.571Z,1.30
2022-08-01T16:30:08.343Z,1.33
2022-08-01T16:32:41.135Z,1.35
2022-08-01T16:35:16.482Z,1.40
2022-08-01T16:37:46.662Z,1.40
2022-08-01T16:40:15.102Z,1.73
2022-08-01T16:42:43.195Z,1.50
2022-08-01T16:45:13.618Z,1.55
2022-08-01T16:47:42.832Z,1.50
2022-08-01T16:50:10.921Z,1.50
2022-08-01T16:52:41.891Z,1.58
2022-08-01T16:55:11.512Z,1.38
2022-08-01T16:57:39.795Z,1.67
2022-08-01T17:00:10.722Z,1.60
2022-08-01T17:02:40.499Z,1.60
2022-08-01T17:05:12.798Z,1.60
2022-08-01T17:07:42.458Z,1.90
2022-08-01T17:10:11.880Z,1.63
2022-08-01T17:12:40.200Z,1.77
2022-08-01T17:15:09.597Z,1.60
2022-08-01T17:17:37.567Z,1.70
2022-08-01T17:20:08.251Z,1.57
2022-08-01T17:22:36.783Z,2.50
2022-08-01T17:25:07.263Z,2.00
2022-08-01T17:27:44.308Z,1.90
2022-08-01T17:30:13.965Z,2.67
2022-08-01T17:32:42.234Z,2.10
2022-08-01T17:35:12.414Z,2.27
2022-08-01T17:37:40.479Z,2.00
2022-08-01T17:40:38.655Z,1.97
2022-08-01T17:43:00.699Z,1.87
2022-08-01T17:45:29.476Z,2.10
2022-08-01T17:47:57.664Z,1.90
2022-08-01T17:50:26.394Z,2.50
2022-08-01T17:52:54.362Z,1.77
2022-08-01T17:55:53.764Z,1.73
2022-08-01T17:58:51.046Z,1.67
2022-08-01T18:01:21.323Z,1.63
2022-08-01T18:03:49.679Z,1.70
2022-08-01T18:06:23.154Z,1.90
2022-08-01T18:08:53.283Z,1.80
2022-08-01T18:11:27.805Z,1.50
2022-08-01T18:13:59.439Z,1.43
2022-08-01T18:16:27.981Z,1.60
2022-08-01T18:18:56.545Z,1.50
2022-08-01T18:21:25.403Z,1.57
2022-08-01T18:23:53.488Z,1.40
2022-08-01T18:26:21.968Z,1.33
2022-08-01T18:28:52.113Z,1.30
2022-08-01T18:31:20.878Z,1.70
2022-08-01T18:33:49.193Z,1.50
2022-08-01T18:36:33.329Z,1.43
2022-08-01T18:39:04.520Z,1.63
2022-08-01T18:41:33.378Z,1.47
2022-08-01T18:44:05.449Z,1.30
2022-08-01T18:46:37.145Z,1.50
2022-08-01T18:49:06.029Z,1.63
2022-08-01T18:51:34.180Z,1.70
2022-08-01T18:54:02.239Z,1.30
2022-08-01T18:56:30.625Z,1.80
2022-08-01T18:58:58.658Z,1.70
2022-08-01T19:01:28.487Z,1.50
2022-08-01T19:03:56.571Z,1.43
2022-08-01T19:06:27.140Z,1.60
2022-08-01T19:08:58.316Z,1.20
2022-08-01T19:11:29.755Z,1.73
2022-08-01T19:14:00.151Z,1.30
2022-08-01T19:16:29.977Z,1.73
2022-08-01T19:18:58.074Z,1.27
2022-08-01T19:21:26.978Z,1.70
2022-08-01T19:24:12.362Z,1.47
2022-08-01T19:26:41.857Z,1.60
2022-08-01T19:29:13.671Z,1.60
2022-08-01T19:31:49.047Z,1.67
2022-08-01T19:34:18.810Z,1.60
2022-08-01T19:36:48.668Z,1.70
2022-08-01T19:39:19.028Z,1.67
2022-08-01T19:41:51.204Z,1.60
2022-08-01T19:44:22.850Z,1.60
2022-08-01T19:46:53.794Z,1.57
2022-08-01T19:49:23.222Z,2.40
2022-08-01T19:51:52.835Z,1.60
2022-08-01T19:54:22.358Z,1.63
2022-08-01T19:56:52.131Z,1.70
2022-08-01T19:59:26.216Z,1.90
2022-08-01T20:01:57.005Z,1.53
2022-08-01T20:04:26.483Z,1.67
2022-08-01T20:06:55.003Z,1.67
2022-08-01T20:09:23.644Z,1.60
2022-08-01T20:11:54.001Z,1.70
2022-08-01T20:14:27.743Z,1.80
2022-08-01T20:16:57.987Z,1.33
2022-08-01T20:19:26.721Z,1.60
2022-08-01T20:22:02.429Z,1.40
2022-08-01T20:24:38.155Z,1.87
2022-08-01T20:27:10.290Z,2.07
2022-08-01T20:29:39.239Z,2.00
2022-08-01T20:32:09.516Z,2.00
2022-08-01T20:34:39.647Z,1.67
2022-08-01T20:37:13.194Z,1.70
2022-08-01T20:39:45.360Z,1.60
2022-08-01T20:42:14.228Z,1.67
2022-08-01T20:44:43.025Z,1.50
2022-08-01T20:47:13.885Z,1.40
2022-08-01T20:49:44.754Z,1.80
2022-08-01T20:52:12.794Z,1.67
2022-08-01T20:54:42.096Z,1.93
2022-08-01T20:57:17.083Z,2.00
2022-08-01T20:59:56.003Z,1.90
2022-08-01T21:02:41.657Z,2.00
2022-08-01T21:05:11.861Z,2.30
2022-08-01T21:07:43.753Z,1.50
2022-08-01T21:10:15.419Z,1.80
2022-08-01T21:12:45.968Z,1.97
2022-08-01T21:15:21.912Z,2.10
2022-08-01T21:17:59.396Z,1.70
2022-08-01T21:20:29.887Z,1.73
2022-08-01T21:23:11.569Z,1.70
2022-08-01T21:25:39.926Z,1.90
2022-08-01T21:28:08.188Z,2.03
2022-08-01T21:30:37.266Z,1.50
2022-08-01T21:33:11.605Z,1.90
2022-08-01T21:35:40.891Z,2.43
2022-08-01T21:38:10.678Z,1.60
2022-08-01T21:40:40.490Z,1.70
2022-08-01T21:43:09.877Z,2.03
2022-08-01T21:45:39.806Z,2.17
2022-08-01T21:48:30.964Z,1.70
2022-08-01T21:51:00.789Z,1.90
2022-08-01T21:53:38.387Z,1.60
2022-08-01T21:56:19.790Z,2.30
2022-08-01T21:58:56.430Z,1.80
2022-08-01T22:01:29.721Z,1.80
2022-08-01T22:04:09.075Z,1.90
2022-08-01T22:06:39.120Z,1.70
2022-08-01T22:09:09.803Z,1.83
2022-08-01T22:12:01.251Z,2.27
2022-08-01T22:14:33.683Z,1.90
2022-08-01T22:17:07.334Z,1.97
2022-08-01T22:19:45.483Z,1.97
2022-08-01T22:22:47.484Z,2.40
2022-08-01T22:25:04.058Z,1.90
2022-08-01T22:28:05.574Z,1.60
2022-08-01T22:30:20.707Z,2.07
2022-08-01T22:33:07.073Z,1.87
2022-08-01T22:35:39.934Z,2.53
2022-08-01T22:38:09.675Z,2.20
2022-08-01T22:40:45.792Z,2.00
2022-08-01T22:43:30.821Z,2.00
2022-08-01T22:46:11.369Z,1.90
2022-08-01T22:48:47.029Z,1.90
2022-08-01T22:51:32.864Z,2.07
2022-08-01T22:54:05.607Z,2.17
2022-08-01T22:56:39.056Z,2.13
2022-08-01T22:59:12.570Z,2.00
2022-08-01T23:01:47.799Z,1.90
2022-08-01T23:04:33.026Z,2.10
2022-08-01T23:07:08.342Z,1.93
2022-08-01T23:09:53.387Z,2.40
2022-08-01T23:12:26.957Z,2.10
2022-08-01T23:14:57.780Z,1.80
2022-08-01T23:17:28.926Z,1.90
2022-08-01T23:19:59.769Z,1.63
2022-08-01T23:22:37.502Z,2.00
2022-08-01T23:25:09.088Z,1.70
2022-08-01T23:27:51.340Z,2.57
2022-08-01T23:30:32.471Z,2.03
2022-08-01T23:33:00.817Z,2.10
2022-08-01T23:35:30.200Z,2.30
2022-08-01T23:38:02.920Z,1.97
2022-08-01T23:40:31.980Z,2.03
2022-08-01T23:43:00.840Z,2.13
2022-08-01T23:46:02.048Z,2.30
2022-08-01T23:48:17.789Z,1.90
2022-08-01T23:50:45.873Z,2.07
2022-08-01T23:53:15.373Z,2.23
2022-08-01T23:55:44.412Z,2.07
2022-08-01T23:58:12.749Z,1.87
